Time;durP1;ratioP1;P1;durP2;ratioP2;P2;SDS_P1;SDS_P2;PMS_P1;PMS_P2;Temp;Humidity;BMP_temperature;BMP_pressure;BME280_temperature;BME280_humidity;BME280_pressure;Samples;Min_cycle;Max_cycle;Signal;HPM_P1;HPM_P2
2022/02/14 00:01:11;;;;;;;4.38;1.95;;;;;;;9.70;64.01;97728.94;5083330;28;20043;-68
2022/02/14 00:03:37;;;;;;;4.20;1.90;;;;;;;9.67;63.71;97728.16;5083615;28;20019;-68
2022/02/14 00:06:02;;;;;;;7.25;2.10;;;;;;;9.74;63.61;97725.31;5083593;28;20016;-68
2022/02/14 00:08:28;;;;;;;4.25;1.70;;;;;;;9.67;63.99;97722.91;5083399;28;20239;-68
2022/02/14 00:10:53;;;;;;;9.30;1.60;;;;;;;9.62;63.40;97714.34;5083482;28;20023;-68
2022/02/14 00:13:19;;;;;;;6.38;1.92;;;;;;;9.50;63.79;97709.44;5083149;28;20062;-68
2022/02/14 00:15:46;;;;;;;4.60;1.90;;;;;;;9.47;63.93;97699.03;5083079;28;20247;-68
2022/02/14 00:18:11;;;;;;;8.07;1.92;;;;;;;9.51;64.57;97709.41;5083306;28;20062;-68
2022/02/14 00:20:37;;;;;;;5.03;1.98;;;;;;;9.40;64.38;97703.56;5083156;28;20012;-68
2022/02/14 00:23:02;;;;;;;4.60;1.73;;;;;;;9.51;65.15;97685.75;5083293;28;20079;-68
2022/02/14 00:25:28;;;;;;;7.32;2.38;;;;;;;9.38;64.87;97704.53;5082842;28;20012;-68
2022/02/14 00:27:53;;;;;;;3.83;1.60;;;;;;;9.49;65.01;97686.72;5083103;28;20051;-68
2022/02/14 00:30:19;;;;;;;2.67;1.50;;;;;;;9.50;64.72;97693.69;5082426;28;20357;-68
2022/02/14 00:32:45;;;;;;;5.95;2.17;;;;;;;9.43;65.55;97686.91;5083009;28;20110;-68
2022/02/14 00:35:13;;;;;;;7.25;1.52;;;;;;;9.51;65.09;97679.63;5082910;28;20020;-68
2022/02/14 00:37:39;;;;;;;3.00;1.20;;;;;;;9.49;65.31;97678.84;5083178;28;20023;-68
2022/02/14 00:40:05;;;;;;;4.00;2.00;;;;;;;9.63;65.16;97663.50;5082630;28;20347;-68
2022/02/14 00:42:31;;;;;;;2.90;1.50;;;;;;;9.70;64.97;97667.66;5082769;28;20020;-68
2022/02/14 00:44:56;;;;;;;2.58;1.85;;;;;;;9.78;65.09;97655.16;5082926;28;20023;-68
2022/02/14 00:47:22;;;;;;;6.15;1.75;;;;;;;9.73;64.56;97664.94;5082768;28;20246;-68
2022/02/14 00:49:47;;;;;;;8.13;1.90;;;;;;;9.59;65.23;97667.13;5082689;28;20013;-68
2022/02/14 00:52:13;;;;;;;4.75;1.67;;;;;;;9.54;65.55;97669.03;5082637;28;20103;-68
2022/02/14 00:54:38;;;;;;;7.70;1.75;;;;;;;9.71;65.59;97658.88;5082830;28;20023;-68
2022/02/14 00:57:04;;;;;;;5.82;1.80;;;;;;;9.65;65.92;97656.44;5082667;28;20016;-68
2022/02/14 00:59:29;;;;;;;3.80;1.70;;;;;;;9.53;66.39;97651.56;5082535;28;20016;-68
2022/02/14 01:01:55;;;;;;;7.68;1.50;;;;;;;9.49;66.42;97645.53;5082516;28;20058;-68
2022/02/14 01:04:20;;;;;;;6.95;1.35;;;;;;;9.43;65.93;97639.63;5082738;28;20020;-68
2022/02/14 01:06:46;;;;;;;7.47;1.52;;;;;;;9.45;65.86;97635.16;5082303;28;20312;-68
2022/02/14 01:09:12;;;;;;;4.40;1.55;;;;;;;9.52;66.66;97637.56;5082673;28;20080;-68
2022/02/14 01:11:38;;;;;;;9.15;1.65;;;;;;;9.41;66.84;97641.41;5082472;28;20017;-68
2022/02/14 01:14:04;;;;;;;3.33;1.42;;;;;;;9.47;65.96;97641.25;5082596;28;20012;-68
2022/02/14 01:16:30;;;;;;;3.88;1.90;;;;;;;9.54;66.50;97642.75;5082822;28;20307;-68
2022/02/14 01:18:55;;;;;;;5.45;1.90;;;;;;;9.58;66.45;97644.38;5082513;28;20108;-68
2022/02/14 01:21:21;;;;;;;3.60;1.40;;;;;;;9.69;66.36;97634.41;5082786;28;20054;-68
2022/02/14 01:23:46;;;;;;;6.45;1.20;;;;;;;9.47;66.51;97646.50;5082374;28;20088;-68
2022/02/14 01:26:12;;;;;;;3.28;1.63;;;;;;;9.44;67.47;97630.81;5082442;28;20331;-68
2022/02/14 01:28:37;;;;;;;4.45;1.88;;;;;;;9.33;67.19;97632.94;5082452;28;20024;-68
2022/02/14 01:31:03;;;;;;;4.45;2.05;;;;;;;9.24;67.62;97638.47;5081997;28;20392;-68
2022/02/14 01:33:28;;;;;;;5.13;1.52;;;;;;;9.34;67.65;97624.16;5082266;28;20024;-68
2022/02/14 01:35:53;;;;;;;4.57;1.27;;;;;;;9.32;67.23;97615.44;5082349;28;20253;-68
2022/02/14 01:38:19;;;;;;;4.93;1.90;;;;;;;9.37;67.33;97618.78;5082319;28;20078;-68
2022/02/14 01:40:44;;;;;;;2.20;1.48;;;;;;;9.39;67.44;97607.34;5082249;28;20016;-68
2022/02/14 01:43:15;;;;;;;3.85;1.65;;;;;;;9.41;67.65;97609.91;5085985;28;20036;-68
2022/02/14 01:45:43;;;;;;;4.45;1.95;;;;;;;9.31;68.19;97608.47;5085744;28;20064;-68
2022/02/14 01:48:10;;;;;;;7.88;1.50;;;;;;;9.30;68.69;97606.78;5085951;28;20296;-68
2022/02/14 01:50:36;;;;;;;2.65;1.20;;;;;;;9.32;69.01;97600.56;5085779;28;20016;-68
2022/02/14 01:53:02;;;;;;;6.28;1.77;;;;;;;9.40;68.97;97593.28;5085399;28;20039;-68
2022/02/14 01:55:27;;;;;;;3.22;1.50;;;;;;;9.47;68.50;97567.69;5085760;28;20031;-68
2022/02/14 01:57:53;;;;;;;2.95;1.30;;;;;;;9.58;68.39;97591.84;5086052;28;20044;-68
2022/02/14 02:00:20;;;;;;;4.38;1.88;;;;;;;9.52;68.64;97586.81;5086420;28;20032;-68
2022/02/14 02:02:46;;;;;;;2.95;1.38;;;;;;;9.60;68.71;97582.16;5088206;28;20020;-68
2022/02/14 02:05:12;;;;;;;3.22;1.48;;;;;;;9.67;68.58;97575.78;5087448;28;20044;-68
2022/02/14 02:07:37;;;;;;;2.83;1.40;;;;;;;9.59;68.62;97573.41;5087796;28;20182;-68
2022/02/14 02:10:07;;;;;;;5.68;1.65;;;;;;;9.60;68.43;97558.53;5087332;28;20017;-68
2022/02/14 02:12:33;;;;;;;2.97;1.52;;;;;;;9.55;68.92;97563.91;5087833;28;20091;-68
2022/02/14 02:15:04;;;;;;;8.95;1.83;;;;;;;9.51;69.25;97559.69;5087431;28;20028;-68
2022/02/14 02:17:32;;;;;;;3.58;1.40;;;;;;;9.52;69.81;97565.81;5087717;28;20416;-68
2022/02/14 02:19:58;;;;;;;3.47;2.08;;;;;;;9.46;69.79;97571.25;5087213;28;20035;-68
2022/02/14 02:22:24;;;;;;;5.90;1.33;;;;;;;9.51;69.60;97545.69;5087365;28;20336;-68
2022/02/14 02:24:52;;;;;;;5.53;1.80;;;;;;;9.54;69.83;97569.22;5087178;28;20252;-68
2022/02/14 02:27:21;;;;;;;5.22;1.42;;;;;;;9.52;69.95;97543.00;5087182;28;20031;-68
2022/02/14 02:29:47;;;;;;;4.88;1.50;;;;;;;9.60;70.04;97555.91;5084021;28;20231;-68
2022/02/14 02:32:13;;;;;;;12.30;2.13;;;;;;;9.47;69.88;97546.69;5087138;28;20048;-68
2022/02/14 02:34:43;;;;;;;5.35;2.38;;;;;;;9.58;70.25;97549.81;5086656;28;20066;-68
2022/02/14 02:37:11;;;;;;;6.70;1.45;;;;;;;9.48;69.62;97543.16;5086910;28;20051;-68
2022/02/14 02:39:37;;;;;;;8.40;2.22;;;;;;;9.49;70.01;97542.25;5087011;28;20035;-68
2022/02/14 02:42:05;;;;;;;5.78;1.58;;;;;;;9.40;70.37;97539.94;5087020;28;20021;-68
2022/02/14 02:44:35;;;;;;;6.10;1.80;;;;;;;9.24;71.38;97539.53;5086721;28;20095;-68
2022/02/14 02:47:06;;;;;;;4.50;1.80;;;;;;;9.26;71.00;97536.84;5086754;28;20077;-68
2022/02/14 02:49:32;;;;;;;10.23;1.90;;;;;;;9.28;71.53;97514.06;5086903;28;20066;-68
2022/02/14 02:51:57;;;;;;;13.77;2.70;;;;;;;9.20;71.69;97524.78;5086690;28;20032;-68
2022/02/14 02:54:25;;;;;;;9.25;2.05;;;;;;;9.29;71.06;97513.13;5086868;28;20029;-68
2022/02/14 02:56:51;;;;;;;12.18;2.03;;;;;;;9.16;71.93;97514.44;5086679;28;20041;-68
2022/02/14 02:59:17;;;;;;;5.45;1.90;;;;;;;9.23;71.70;97510.69;5086449;28;20060;-68
2022/02/14 03:01:43;;;;;;;5.30;1.95;;;;;;;9.12;72.16;97486.56;5086406;28;20058;-68
2022/02/14 03:04:12;;;;;;;12.55;1.90;;;;;;;9.29;71.78;97505.25;5086723;28;20056;-68
2022/02/14 03:06:38;;;;;;;4.75;1.58;;;;;;;9.32;71.78;97498.16;5085157;28;20024;-68
2022/02/14 03:09:08;;;;;;;8.20;1.90;;;;;;;9.31;71.42;97493.81;5084231;28;20316;-68
2022/02/14 03:11:35;;;;;;;6.30;2.03;;;;;;;9.41;71.88;97500.50;5084552;28;20028;-68
2022/02/14 03:14:00;;;;;;;7.10;2.30;;;;;;;9.28;71.89;97491.28;5084258;28;20020;-68
2022/02/14 03:16:26;;;;;;;6.32;2.45;;;;;;;9.30;72.12;97480.75;5084260;28;20020;-68
2022/02/14 03:18:52;;;;;;;10.88;1.75;;;;;;;9.38;72.33;97494.47;5084087;28;20029;-68
2022/02/14 03:21:20;;;;;;;5.13;1.42;;;;;;;9.43;72.34;97466.31;5084831;28;20028;-68
2022/02/14 03:23:50;;;;;;;6.97;2.25;;;;;;;9.49;71.75;97484.47;5084925;28;20012;-68
2022/02/14 03:26:17;;;;;;;5.93;2.38;;;;;;;9.46;71.86;97487.22;5084767;28;20201;-68
2022/02/14 03:28:50;;;;;;;7.95;2.30;;;;;;;9.47;71.88;97473.16;5084264;28;20096;-68
2022/02/14 03:31:16;;;;;;;2.95;1.38;;;;;;;9.38;72.56;97473.47;5083407;28;20040;-68
2022/02/14 03:33:43;;;;;;;7.30;2.05;;;;;;;9.36;72.31;97460.38;5083699;28;20064;-68
2022/02/14 03:36:10;;;;;;;4.10;1.90;;;;;;;9.37;72.77;97469.13;5083705;28;20048;-68
2022/02/14 03:38:35;;;;;;;3.90;1.63;;;;;;;9.42;72.77;97461.94;5083799;28;20031;-68
2022/02/14 03:41:00;;;;;;;9.90;2.53;;;;;;;9.51;72.02;97461.63;5083638;28;20012;-68
2022/02/14 03:43:26;;;;;;;5.70;1.98;;;;;;;9.38;72.43;97468.22;5083630;28;20312;-68
2022/02/14 03:45:51;;;;;;;7.38;2.20;;;;;;;9.28;72.90;97466.78;5083520;28;20020;-68
2022/02/14 03:48:17;;;;;;;5.82;2.10;;;;;;;9.16;73.09;97456.69;5083394;28;20021;-68
2022/02/14 03:50:42;;;;;;;7.18;2.03;;;;;;;9.22;72.95;97456.50;5083362;28;20012;-68
2022/02/14 03:53:08;;;;;;;4.63;1.50;;;;;;;9.17;72.90;97458.44;5083590;28;20020;-68
2022/02/14 03:55:34;;;;;;;7.78;2.15;;;;;;;9.08;73.17;97459.56;5083021;28;20308;-68
2022/02/14 03:58:00;;;;;;;7.13;2.65;;;;;;;9.05;73.30;97464.06;5083422;28;20032;-68
2022/02/14 04:00:26;;;;;;;6.70;2.10;;;;;;;9.02;73.62;97458.91;5083261;28;20028;-68
2022/02/14 04:02:52;;;;;;;8.02;1.65;;;;;;;9.14;73.42;97459.38;5083181;28;20023;-68
2022/02/14 04:05:19;;;;;;;4.65;1.80;;;;;;;9.16;73.54;97446.19;5082973;28;20058;-68
2022/02/14 04:07:45;;;;;;;3.95;2.00;;;;;;;9.16;72.99;97446.19;5083222;28;20016;-68
2022/02/14 04:10:13;;;;;;;15.63;2.55;;;;;;;9.17;72.95;97455.81;5083172;28;20312;-68
2022/02/14 04:12:38;;;;;;;6.03;1.80;;;;;;;9.10;73.38;97451.63;5079848;28;20016;-68
2022/02/14 04:15:06;;;;;;;6.63;1.80;;;;;;;9.20;73.78;97456.53;5082859;28;20024;-68
2022/02/14 04:17:32;;;;;;;5.82;2.33;;;;;;;9.11;73.64;97463.88;5082926;28;20025;-68
2022/02/14 04:19:58;;;;;;;3.70;2.05;;;;;;;9.07;73.16;97449.97;5082840;28;20181;-68
2022/02/14 04:22:23;;;;;;;15.85;1.95;;;;;;;9.13;73.23;97455.03;5082981;28;20016;-68
2022/02/14 04:24:49;;;;;;;8.52;2.15;;;;;;;9.14;73.76;97459.38;5082996;28;20189;-68
2022/02/14 04:27:15;;;;;;;7.28;2.08;;;;;;;9.21;73.07;97454.78;5082863;28;20020;-68
2022/02/14 04:29:40;;;;;;;3.58;1.75;;;;;;;9.27;72.92;97460.69;5083082;28;20016;-68
2022/02/14 04:32:07;;;;;;;6.80;1.42;;;;;;;9.33;72.81;97462.28;5082719;28;20036;-68
2022/02/14 04:34:33;;;;;;;5.85;1.95;;;;;;;9.39;73.14;97464.66;5082678;28;20040;-68
2022/02/14 04:36:59;;;;;;;1.92;1.17;;;;;;;9.46;72.53;97461.78;5083040;28;20020;-68
2022/02/14 04:39:25;;;;;;;9.20;2.35;;;;;;;9.57;72.32;97453.56;5081571;28;20339;-68
2022/02/14 04:41:50;;;;;;;5.70;2.10;;;;;;;9.55;72.25;97450.13;5082290;28;20020;-68
2022/02/14 04:44:15;;;;;;;5.82;1.60;;;;;;;9.60;71.91;97453.44;5082247;28;20032;-68
2022/02/14 04:46:41;;;;;;;3.28;1.15;;;;;;;9.66;71.98;97458.50;5081672;28;20208;-68
2022/02/14 04:49:08;;;;;;;11.57;1.95;;;;;;;9.62;71.95;97454.25;5082332;28;20013;-68
2022/02/14 04:51:34;;;;;;;8.00;1.90;;;;;;;9.59;72.11;97447.31;5081619;28;20027;-68
2022/02/14 04:54:02;;;;;;;6.95;1.70;;;;;;;9.70;71.58;97450.47;5082025;28;20378;-68
2022/02/14 04:56:27;;;;;;;9.48;1.80;;;;;;;9.73;71.73;97454.75;5081892;28;20028;-68
2022/02/14 04:58:53;;;;;;;8.88;2.08;;;;;;;9.81;71.20;97465.84;5082161;28;20031;-68
2022/02/14 05:01:19;;;;;;;12.90;2.10;;;;;;;9.83;71.47;97450.88;5082863;28;20265;-68
2022/02/14 05:03:44;;;;;;;2.92;1.67;;;;;;;9.76;71.96;97445.00;5082524;28;20220;-68
2022/02/14 05:06:10;;;;;;;6.72;1.45;;;;;;;9.78;71.82;97458.91;5082389;28;20053;-68
2022/02/14 05:08:35;;;;;;;11.23;2.13;;;;;;;9.83;71.44;97450.88;5082503;28;20024;-68
2022/02/14 05:11:02;;;;;;;6.85;1.77;;;;;;;9.76;71.93;97446.75;5083585;28;20021;-68
2022/02/14 05:13:27;;;;;;;9.73;2.28;;;;;;;9.80;71.33;97446.59;5083943;28;20028;-68
2022/02/14 05:15:53;;;;;;;4.97;1.73;;;;;;;9.80;71.69;97443.09;5083960;28;20343;-68
2022/02/14 05:18:18;;;;;;;9.38;2.13;;;;;;;9.88;71.25;97436.69;5087366;28;20024;-68
2022/02/14 05:20:44;;;;;;;1.73;1.50;;;;;;;9.92;71.23;97442.66;5087298;28;20029;-68
2022/02/14 05:23:09;;;;;;;6.45;1.60;;;;;;;9.91;70.92;97443.59;5087316;28;20300;-68
2022/02/14 05:25:35;;;;;;;5.88;1.38;;;;;;;9.89;71.53;97430.50;5087286;28;20079;-68
2022/02/14 05:28:06;;;;;;;5.10;1.58;;;;;;;9.85;72.14;97417.53;5087399;28;20327;-68
2022/02/14 05:30:32;;;;;;;3.95;1.75;;;;;;;9.92;72.13;97435.66;5087212;28;20040;-68
2022/02/14 05:32:57;;;;;;;7.63;1.98;;;;;;;9.99;71.42;97447.66;5087268;28;20048;-68
2022/02/14 05:35:23;;;;;;;21.05;2.47;;;;;;;9.90;74.54;97447.16;5087217;28;20027;-68
2022/02/14 05:37:48;;;;;;;6.22;1.60;;;;;;;9.80;75.46;97440.47;5087321;28;20024;-68
2022/02/14 05:40:14;;;;;;;12.20;1.98;;;;;;;9.66;77.01;97433.09;5086948;28;20043;-68
2022/02/14 05:42:39;;;;;;;4.40;1.90;;;;;;;9.66;75.92;97437.47;5087011;28;20254;-68
2022/02/14 05:45:05;;;;;;;12.38;2.55;;;;;;;9.55;76.42;97444.88;5087113;28;20020;-68
2022/02/14 05:47:30;;;;;;;8.40;2.25;;;;;;;9.53;76.41;97442.31;5087074;28;20024;-68
2022/02/14 05:49:56;;;;;;;5.75;1.75;;;;;;;9.72;75.51;97448.66;5086809;28;20309;-68
2022/02/14 05:52:21;;;;;;;6.30;2.38;;;;;;;9.63;75.64;97442.84;5086987;28;20061;-68
2022/02/14 05:54:47;;;;;;;10.93;1.88;;;;;;;9.69;75.25;97445.25;5086949;28;20020;-68
2022/02/14 05:57:12;;;;;;;4.97;1.80;;;;;;;9.73;74.82;97449.47;5086982;28;20357;-68
2022/02/14 05:59:37;;;;;;;4.85;2.20;;;;;;;9.76;74.91;97452.88;5086621;28;20035;-68
2022/02/14 06:02:03;;;;;;;5.75;1.83;;;;;;;9.72;74.70;97453.03;5086819;28;20016;-68
2022/02/14 06:04:30;;;;;;;11.05;1.98;;;;;;;9.73;74.63;97450.34;5086734;28;20108;-68
2022/02/14 06:06:55;;;;;;;10.38;2.72;;;;;;;9.75;74.71;97438.00;5086619;28;20319;-68
2022/02/14 06:09:22;;;;;;;4.80;1.90;;;;;;;9.80;75.22;97448.34;5086612;28;20024;-68
2022/02/14 06:11:47;;;;;;;2.38;1.25;;;;;;;9.79;75.24;97446.66;5086534;28;20027;-68
2022/02/14 06:14:13;;;;;;;4.68;1.92;;;;;;;9.78;75.20;97458.09;5086438;28;20048;-68
2022/02/14 06:16:39;;;;;;;4.15;1.85;;;;;;;9.85;75.53;97459.56;5086320;28;20020;-68
2022/02/14 06:19:04;;;;;;;9.07;2.15;;;;;;;9.81;74.99;97450.94;5086246;28;20027;-68
2022/02/14 06:21:30;;;;;;;8.25;1.88;;;;;;;9.78;75.06;97448.41;5086281;28;20224;-68
2022/02/14 06:23:55;;;;;;;12.30;2.53;;;;;;;9.83;75.16;97458.75;5086113;28;20057;-68
2022/02/14 06:26:21;;;;;;;7.30;1.98;;;;;;;9.88;75.00;97451.59;5086396;28;20024;-68
2022/02/14 06:28:46;;;;;;;6.88;1.88;;;;;;;9.76;75.61;97462.50;5085699;28;20024;-68
2022/02/14 06:31:12;;;;;;;5.80;2.00;;;;;;;9.79;75.61;97452.78;5085819;28;20041;-68
2022/02/14 06:33:37;;;;;;;6.82;1.65;;;;;;;9.83;75.42;97453.50;5086026;28;20215;-68
2022/02/14 06:36:07;;;;;;;4.88;1.70;;;;;;;9.83;75.45;97456.13;5085986;28;20021;-68
2022/02/14 06:38:33;;;;;;;4.72;1.80;;;;;;;9.85;75.45;97496.38;5085871;28;20021;-68
2022/02/14 06:40:59;;;;;;;4.05;1.83;;;;;;;9.86;76.16;97524.34;5085990;28;20016;-68
2022/02/14 06:43:25;;;;;;;4.80;1.45;;;;;;;9.89;76.61;97484.81;5085805;28;20335;-68
2022/02/14 06:45:50;;;;;;;19.85;2.38;;;;;;;9.85;76.93;97496.38;5085687;28;20083;-68
2022/02/14 06:48:16;;;;;;;4.82;1.73;;;;;;;9.78;77.86;97481.72;5085745;28;20247;-68
2022/02/14 06:50:41;;;;;;;11.15;1.70;;;;;;;9.80;78.30;97472.00;5085681;28;20088;-68
2022/02/14 06:53:07;;;;;;;9.85;2.45;;;;;;;9.71;79.33;97477.59;5085889;28;20065;-68
2022/02/14 06:55:32;;;;;;;8.40;1.52;;;;;;;9.63;79.14;97480.47;5085672;28;20316;-68
2022/02/14 06:57:58;;;;;;;5.63;1.67;;;;;;;9.66;78.54;97477.75;5085605;28;20020;-68
2022/02/14 07:00:24;;;;;;;3.53;1.90;;;;;;;9.70;78.13;97475.84;5085344;28;20259;-68
2022/02/14 07:02:49;;;;;;;4.53;1.88;;;;;;;9.71;78.14;97478.44;5085498;28;20020;-68
2022/02/14 07:05:16;;;;;;;7.55;2.20;;;;;;;9.85;77.25;97470.09;5085373;28;20339;-68
2022/02/14 07:07:43;;;;;;;11.52;2.58;;;;;;;9.87;77.28;97474.38;5085235;28;20024;-68
2022/02/14 07:10:08;;;;;;;7.05;1.50;;;;;;;9.87;76.88;97479.63;5085238;28;20030;-68
2022/02/14 07:12:34;;;;;;;4.43;1.50;;;;;;;9.90;76.97;97473.44;5085256;28;20032;-68
2022/02/14 07:15:00;;;;;;;3.38;1.65;;;;;;;9.92;76.85;97476.84;5085242;28;20087;-68
2022/02/14 07:17:25;;;;;;;4.60;1.60;;;;;;;9.84;77.90;97469.22;5085509;28;20032;-68
2022/02/14 07:19:50;;;;;;;9.32;1.38;;;;;;;9.89;77.16;97476.94;5085172;28;20024;-68
2022/02/14 07:22:16;;;;;;;9.32;1.90;;;;;;;9.97;77.06;97470.50;5085028;28;20020;-68
2022/02/14 07:24:41;;;;;;;9.30;2.05;;;;;;;9.94;77.61;97480.28;5084897;28;20031;-68
2022/02/14 07:27:07;;;;;;;6.53;1.75;;;;;;;9.96;77.67;97478.44;5085005;28;20020;-68
2022/02/14 07:29:32;;;;;;;10.45;1.67;;;;;;;9.93;77.63;97473.28;5084999;28;20098;-68
2022/02/14 07:31:59;;;;;;;6.97;1.90;;;;;;;9.96;77.65;97483.69;5084836;28;20255;-68
2022/02/14 07:34:24;;;;;;;5.30;2.53;;;;;;;9.94;78.00;97477.66;5085050;28;20024;-68
2022/02/14 07:36:50;;;;;;;7.70;1.95;;;;;;;9.95;77.84;97476.72;5084751;28;20335;-68
2022/02/14 07:39:16;;;;;;;7.70;2.20;;;;;;;9.94;78.77;97473.22;5083931;28;20212;-68
2022/02/14 07:41:41;;;;;;;4.20;1.85;;;;;;;9.96;78.71;97467.94;5084887;28;20308;-68
2022/02/14 07:44:07;;;;;;;4.20;1.52;;;;;;;9.99;78.73;97473.06;5084626;28;20025;-68
2022/02/14 07:46:33;;;;;;;3.03;1.55;;;;;;;9.91;79.32;97480.38;5084638;28;20042;-68
2022/02/14 07:48:58;;;;;;;3.00;1.45;;;;;;;9.81;79.48;97473.75;5084577;28;20023;-68
2022/02/14 07:51:25;;;;;;;5.35;1.25;;;;;;;9.89;79.70;97466.44;5084610;28;20050;-68
2022/02/14 07:53:50;;;;;;;9.25;1.70;;;;;;;9.97;79.03;97474.91;5084542;28;20028;-68
2022/02/14 07:56:16;;;;;;;4.50;1.50;;;;;;;10.00;78.60;97474.81;5084459;28;20316;-68
2022/02/14 07:58:42;;;;;;;3.03;1.40;;;;;;;10.00;79.13;97488.78;5084346;28;20017;-68
2022/02/14 08:01:09;;;;;;;6.07;1.80;;;;;;;10.08;78.83;97491.19;5084380;28;20219;-68
2022/02/14 08:03:34;;;;;;;5.18;1.58;;;;;;;10.08;78.63;97483.31;5084341;28;20047;-68
2022/02/14 08:06:01;;;;;;;4.80;1.85;;;;;;;10.12;78.72;97474.38;5084344;28;20024;-68
2022/02/14 08:08:26;;;;;;;7.78;2.05;;;;;;;10.10;78.57;97477.06;5084233;28;20378;-68
2022/02/14 08:10:53;;;;;;;6.18;1.42;;;;;;;10.15;78.67;97482.16;5084250;28;20016;-68
2022/02/14 08:13:19;;;;;;;5.60;1.42;;;;;;;10.13;78.41;97476.13;5084547;28;20356;-68
2022/02/14 08:15:44;;;;;;;3.53;1.23;;;;;;;10.14;78.54;97480.47;5084266;28;20087;-68
2022/02/14 08:18:10;;;;;;;5.03;1.75;;;;;;;10.24;77.81;97481.84;5084139;28;20024;-68
2022/02/14 08:20:36;;;;;;;3.90;1.30;;;;;;;10.24;78.13;97484.47;5084267;28;20031;-68
2022/02/14 08:23:03;;;;;;;8.10;1.63;;;;;;;10.19;78.57;97486.41;5084327;28;20044;-68
2022/02/14 08:25:32;;;;;;;13.25;1.83;;;;;;;10.23;78.42;97485.38;5084125;28;20319;-68
2022/02/14 08:27:59;;;;;;;3.85;1.60;;;;;;;10.24;78.37;97489.72;5084113;28;20100;-68
2022/02/14 08:30:25;;;;;;;4.22;1.50;;;;;;;10.21;78.17;97489.84;5083814;28;20040;-68
2022/02/14 08:32:50;;;;;;;7.65;1.65;;;;;;;10.23;77.96;97477.50;5084132;28;20028;-68
2022/02/14 08:35:17;;;;;;;13.55;1.83;;;;;;;10.29;78.15;97499.16;5084092;28;20091;-68
2022/02/14 08:37:44;;;;;;;7.22;2.03;;;;;;;10.40;77.40;97475.09;5083946;28;20028;-68
2022/02/14 08:40:10;;;;;;;3.15;1.30;;;;;;;10.44;77.16;97474.09;5084083;28;20320;-68
2022/02/14 08:42:35;;;;;;;4.85;1.45;;;;;;;10.50;77.48;97471.22;5083876;28;20039;-68
2022/02/14 08:45:02;;;;;;;3.63;1.48;;;;;;;10.65;76.97;97475.91;5083963;28;20324;-68
2022/02/14 08:47:27;;;;;;;5.45;1.70;;;;;;;10.75;76.49;97472.00;5084135;28;20030;-68
2022/02/14 08:49:53;;;;;;;11.20;1.77;;;;;;;10.92;76.54;97456.44;5084353;28;20023;-68
2022/02/14 08:52:18;;;;;;;7.53;1.52;;;;;;;11.11;75.70;97454.78;5088114;28;20024;-68
2022/02/14 08:54:44;;;;;;;10.38;1.95;;;;;;;11.41;74.12;97460.56;5088188;28;20027;-68
2022/02/14 08:57:09;;;;;;;2.42;1.15;;;;;;;12.04;73.05;97456.09;5088678;28;20024;-68
2022/02/14 08:59:35;;;;;;;7.03;1.90;;;;;;;11.98;73.50;97464.28;5089393;28;20382;-68
2022/02/14 09:02:01;;;;;;;5.88;1.38;;;;;;;12.07;72.36;97471.78;5089762;28;20036;-68
2022/02/14 09:04:27;;;;;;;2.75;1.27;;;;;;;12.20;72.03;97464.19;5089508;28;20027;-68
2022/02/14 09:06:53;;;;;;;8.20;1.73;;;;;;;12.01;72.10;97472.06;5089457;28;20020;-68
2022/02/14 09:09:20;;;;;;;8.43;1.90;;;;;;;11.96;72.04;97462.63;5089253;28;20020;-68
2022/02/14 09:11:46;;;;;;;5.50;1.25;;;;;;;11.91;72.45;97465.47;5089231;28;20095;-68
2022/02/14 09:14:12;;;;;;;4.45;1.52;;;;;;;12.36;71.16;97463.44;5089163;28;20028;-68
2022/02/14 09:16:37;;;;;;;4.00;1.58;;;;;;;12.46;70.47;97464.75;5089344;28;20212;-68
2022/02/14 09:19:03;;;;;;;2.25;1.30;;;;;;;12.46;70.98;97462.09;5089195;28;20021;-68
2022/02/14 09:21:28;;;;;;;4.03;1.33;;;;;;;12.33;71.77;97468.84;5089217;28;20043;-68
2022/02/14 09:23:55;;;;;;;7.50;1.63;;;;;;;12.07;71.65;97455.97;5088830;28;20016;-68
2022/02/14 09:26:21;;;;;;;8.23;1.52;;;;;;;12.54;71.49;97462.63;5088634;28;20024;-68
2022/02/14 09:28:46;;;;;;;3.58;1.95;;;;;;;12.74;71.41;97459.91;5088937;28;20027;-68
2022/02/14 09:31:11;;;;;;;4.13;1.48;;;;;;;12.45;71.54;97463.03;5088728;28;20236;-68
2022/02/14 09:33:37;;;;;;;4.80;1.58;;;;;;;12.43;72.12;97438.50;5088924;28;20093;-68
2022/02/14 09:36:02;;;;;;;4.53;1.77;;;;;;;12.35;72.48;97459.09;5089030;28;20020;-68
2022/02/14 09:38:28;;;;;;;4.57;1.70;;;;;;;12.35;72.06;97472.28;5088864;28;20095;-68
2022/02/14 09:40:54;;;;;;;9.25;1.77;;;;;;;12.26;71.62;97450.72;5088773;28;20016;-68
2022/02/14 09:43:20;;;;;;;7.28;1.60;;;;;;;12.35;73.71;97445.03;5088716;28;20025;-68
2022/02/14 09:45:46;;;;;;;3.22;1.42;;;;;;;12.16;73.08;97445.03;5088394;28;20035;-68
2022/02/14 09:48:14;;;;;;;4.68;1.45;;;;;;;12.07;73.68;97449.81;5088498;28;20026;-68
2022/02/14 09:50:41;;;;;;;5.60;1.70;;;;;;;12.10;73.94;97463.75;5088630;28;20024;-68
2022/02/14 09:53:10;;;;;;;9.27;1.73;;;;;;;12.00;73.66;97465.06;5088347;28;20212;-68
2022/02/14 09:55:37;;;;;;;6.75;1.70;;;;;;;11.99;73.32;97470.41;5088147;28;20066;-68
2022/02/14 09:58:03;;;;;;;5.85;1.30;;;;;;;11.91;74.33;97465.47;5088264;28;20314;-68
2022/02/14 10:00:29;;;;;;;2.53;1.50;;;;;;;11.81;73.90;97456.25;5088177;28;20194;-68
2022/02/14 10:03:18;;;;;;;9.30;1.98;;;;;;;11.82;73.67;97465.84;5087447;28;20030;-68
2022/02/14 10:05:49;;;;;;;5.03;1.52;;;;;;;11.66;74.66;97454.25;5088274;28;20254;-68
2022/02/14 10:08:23;;;;;;;5.25;1.83;;;;;;;11.66;74.77;97459.53;5088063;28;20091;-68
2022/02/14 10:10:51;;;;;;;4.88;1.48;;;;;;;11.73;74.18;97462.75;5087905;28;20028;-68
2022/02/14 10:13:32;;;;;;;8.15;2.25;;;;;;;11.77;74.16;97457.28;5088275;28;20031;-68
2022/02/14 10:15:58;;;;;;;12.35;2.13;;;;;;;11.77;74.83;97462.53;5088083;28;20034;-68
2022/02/14 10:18:28;;;;;;;5.45;1.52;;;;;;;11.83;74.16;97472.00;5088124;28;20028;-68
2022/02/14 10:21:14;;;;;;;12.55;2.20;;;;;;;12.01;74.29;97469.41;5087805;28;20021;-68
2022/02/14 10:24:02;;;;;;;2.50;1.38;;;;;;;12.16;73.60;97468.75;5087728;28;20088;-68
2022/02/14 10:26:46;;;;;;;4.85;1.30;;;;;;;12.27;73.72;97462.97;5087852;28;20054;-68
2022/02/14 10:29:16;;;;;;;6.57;1.85;;;;;;;12.49;74.22;97459.31;5087978;28;20016;-68
2022/02/14 10:31:54;;;;;;;3.50;1.27;;;;;;;12.46;72.33;97446.25;5087595;28;20096;-68
2022/02/14 10:34:22;;;;;;;10.00;2.15;;;;;;;12.27;73.07;97455.94;5087673;28;20091;-68
2022/02/14 10:36:49;;;;;;;3.10;1.13;;;;;;;12.38;73.26;97456.31;5087053;28;20046;-68
2022/02/14 10:39:25;;;;;;;3.17;1.40;;;;;;;12.46;72.03;97464.75;5087556;28;20217;-68
2022/02/14 10:42:00;;;;;;;4.45;1.33;;;;;;;12.35;72.90;97453.81;5088018;28;20032;-68
2022/02/14 10:47:19;;;;;;;;;;;;;;;12.21;73.30;97464.13;5088382;28;20220;-68
2022/02/14 10:50:00;;;;;;;7.40;1.33;;;;;;;12.15;73.25;97459.09;5087679;28;19904;-68
2022/02/14 10:52:39;;;;;;;5.40;1.60;;;;;;;12.03;74.00;97469.34;5087447;28;20020;-68
2022/02/14 10:55:19;;;;;;;6.38;1.67;;;;;;;11.98;74.39;97472.19;5087487;28;20332;-68
2022/02/14 10:57:46;;;;;;;11.38;1.45;;;;;;;11.83;73.95;97467.56;5087485;28;20021;-68
2022/02/14 11:00:14;;;;;;;11.35;1.80;;;;;;;11.71;75.62;97468.06;5086957;28;20031;-68
2022/02/14 11:02:43;;;;;;;3.05;1.50;;;;;;;11.66;74.74;97477.97;5087007;28;20024;-68
2022/02/14 11:05:10;;;;;;;3.40;1.58;;;;;;;11.61;75.38;97477.25;5086089;28;20017;-68
2022/02/14 11:07:36;;;;;;;7.13;1.45;;;;;;;11.63;75.08;97480.72;5086481;28;20055;-68
2022/02/14 11:10:04;;;;;;;7.65;2.10;;;;;;;11.51;75.39;97470.66;5086601;28;20020;-68
2022/02/14 11:12:31;;;;;;;8.43;1.70;;;;;;;11.57;75.03;97480.09;5086156;28;20020;-68
2022/02/14 11:15:00;;;;;;;5.13;1.63;;;;;;;11.52;75.77;97485.53;5084686;28;20078;-68
2022/02/14 11:17:30;;;;;;;6.65;1.83;;;;;;;11.53;75.24;97482.00;5085669;28;20027;-68
2022/02/14 11:20:01;;;;;;;4.78;1.40;;;;;;;11.50;76.22;97479.50;5085870;28;20077;-68
2022/02/14 11:22:29;;;;;;;5.35;1.45;;;;;;;11.38;76.58;97485.25;5086203;28;20083;-68
2022/02/14 11:25:20;;;;;;;10.13;1.52;;;;;;;11.35;77.07;97474.84;5086167;28;20189;-68
2022/02/14 11:28:28;;;;;;;5.65;1.67;;;;;;;11.33;76.84;97476.69;5075749;28;20060;-68
2022/02/14 11:31:15;;;;;;;3.80;1.25;;;;;;;11.32;76.29;97472.34;5059489;28;20047;-68
2022/02/14 11:33:50;;;;;;;7.03;1.90;;;;;;;11.33;76.90;97474.03;5086677;28;20263;-68
2022/02/14 11:36:16;;;;;;;5.57;1.55;;;;;;;11.33;76.76;97470.56;5086526;28;20223;-68
2022/02/14 11:38:52;;;;;;;7.05;1.13;;;;;;;11.28;76.94;97461.97;5086316;28;20028;-68
2022/02/14 11:41:28;;;;;;;3.13;1.40;;;;;;;11.27;76.92;97470.81;5086484;28;20025;-68